Torrington, Canada
Current Conditions -  °F | °C
As of 7:00 AM on Wednesday 22 Oct 2014 (Local Time) from CYQF Reporting Station
Clear Clear  
Wind Chill: 27°   Ceiling: Unl
Heat Index: 27°   Visibility: 15mi
Dew Point: 25°   Wind: 2mph
Humidity: 93%   Direction: 180°S
Pressure: 29.71"   Gusts: NA
Location:  51.8°N, 113.6°W
Report Text: CYQF 221300Z 18002KT 15SM SKC M03/M04 A2971 RMK FROIN SLP093
Loading
Personal Weather Stations






























Interactive Weather Map
Tropical Storm Tracking
New forecast layout! Learn more

10-Day Weather Forecast

Advertisements
Track Severe Weather on mobile